sensor_id;sensor_type;location;lat;lon;timestamp;temperature;humidity
48535;DHT22;34323;52.022;5.686;2023-02-11T00:01:10;11.40;99.90
48535;DHT22;34323;52.022;5.686;2023-02-11T00:03:37;11.60;99.90
48535;DHT22;34323;52.022;5.686;2023-02-11T00:06:05;11.60;99.90
48535;DHT22;34323;52.022;5.686;2023-02-11T00:08:34;11.40;99.90
48535;DHT22;34323;52.022;5.686;2023-02-11T00:10:59;10.80;99.90
48535;DHT22;34323;52.022;5.686;2023-02-11T00:13:25;10.60;99.90
48535;DHT22;34323;52.022;5.686;2023-02-11T00:15:52;10.80;99.90
48535;DHT22;34323;52.022;5.686;2023-02-11T00:18:17;11.00;99.90
48535;DHT22;34323;52.022;5.686;2023-02-11T00:20:43;11.20;99.90
48535;DHT22;34323;52.022;5.686;2023-02-11T00:23:09;11.30;99.90
48535;DHT22;34323;52.022;5.686;2023-02-11T00:25:42;11.40;99.90
48535;DHT22;34323;52.022;5.686;2023-02-11T00:28:08;11.50;99.90
48535;DHT22;34323;52.022;5.686;2023-02-11T00:30:34;11.00;99.90
48535;DHT22;34323;52.022;5.686;2023-02-11T00:33:00;10.80;99.90
48535;DHT22;34323;52.022;5.686;2023-02-11T00:35:26;11.00;99.90
48535;DHT22;34323;52.022;5.686;2023-02-11T00:37:53;11.10;99.90
48535;DHT22;34323;52.022;5.686;2023-02-11T00:40:19;11.40;99.90
48535;DHT22;34323;52.022;5.686;2023-02-11T00:42:44;11.30;99.90
48535;DHT22;34323;52.022;5.686;2023-02-11T00:45:10;11.00;99.90
48535;DHT22;34323;52.022;5.686;2023-02-11T00:47:36;10.70;99.90
48535;DHT22;34323;52.022;5.686;2023-02-11T00:50:03;10.90;99.90
48535;DHT22;34323;52.022;5.686;2023-02-11T00:52:30;11.20;99.90
48535;DHT22;34323;52.022;5.686;2023-02-11T00:54:56;11.40;99.90
48535;DHT22;34323;52.022;5.686;2023-02-11T00:57:21;11.50;99.90
48535;DHT22;34323;52.022;5.686;2023-02-11T00:59:47;11.40;99.90
48535;DHT22;34323;52.022;5.686;2023-02-11T01:02:13;11.20;99.90
48535;DHT22;34323;52.022;5.686;2023-02-11T01:04:38;11.20;99.90
48535;DHT22;34323;52.022;5.686;2023-02-11T01:07:04;11.20;99.90
48535;DHT22;34323;52.022;5.686;2023-02-11T01:09:29;11.10;99.90
48535;DHT22;34323;52.022;5.686;2023-02-11T01:11:55;10.70;99.90
48535;DHT22;34323;52.022;5.686;2023-02-11T01:14:21;10.40;99.90
48535;DHT22;34323;52.022;5.686;2023-02-11T01:16:46;10.70;99.90
48535;DHT22;34323;52.022;5.686;2023-02-11T01:19:12;10.70;99.90
48535;DHT22;34323;52.022;5.686;2023-02-11T01:21:37;10.80;99.90
48535;DHT22;34323;52.022;5.686;2023-02-11T01:24:03;10.60;99.90
48535;DHT22;34323;52.022;5.686;2023-02-11T01:26:28;10.90;99.90
48535;DHT22;34323;52.022;5.686;2023-02-11T01:28:54;11.10;99.90
48535;DHT22;34323;52.022;5.686;2023-02-11T01:31:20;11.20;99.90
48535;DHT22;34323;52.022;5.686;2023-02-11T01:33:45;11.20;99.90
48535;DHT22;34323;52.022;5.686;2023-02-11T01:36:11;11.20;99.90
48535;DHT22;34323;52.022;5.686;2023-02-11T01:38:37;11.00;99.90
48535;DHT22;34323;52.022;5.686;2023-02-11T01:41:07;11.10;99.90
48535;DHT22;34323;52.022;5.686;2023-02-11T01:43:39;11.20;99.90
48535;DHT22;34323;52.022;5.686;2023-02-11T01:48:52;11.40;99.90
48535;DHT22;34323;52.022;5.686;2023-02-11T01:51:25;11.30;99.90
48535;DHT22;34323;52.022;5.686;2023-02-11T01:53:51;11.40;99.90
48535;DHT22;34323;52.022;5.686;2023-02-11T01:56:40;11.70;99.90
48535;DHT22;34323;52.022;5.686;2023-02-11T01:59:32;11.40;99.90
48535;DHT22;34323;52.022;5.686;2023-02-11T02:02:02;11.00;99.90
48535;DHT22;34323;52.022;5.686;2023-02-11T02:04:33;10.90;99.90
48535;DHT22;34323;52.022;5.686;2023-02-11T02:07:09;11.00;99.90
48535;DHT22;34323;52.022;5.686;2023-02-11T02:09:40;11.30;99.90
48535;DHT22;34323;52.022;5.686;2023-02-11T02:12:07;11.30;99.90
48535;DHT22;34323;52.022;5.686;2023-02-11T02:14:37;11.40;99.90
48535;DHT22;34323;52.022;5.686;2023-02-11T02:17:03;11.40;99.90
48535;DHT22;34323;52.022;5.686;2023-02-11T02:38:12;11.50;99.90
48535;DHT22;34323;52.022;5.686;2023-02-11T02:40:53;11.60;99.90
48535;DHT22;34323;52.022;5.686;2023-02-11T02:43:23;11.80;99.90
48535;DHT22;34323;52.022;5.686;2023-02-11T02:45:50;11.50;99.90
48535;DHT22;34323;52.022;5.686;2023-02-11T02:48:31;11.50;99.90
48535;DHT22;34323;52.022;5.686;2023-02-11T02:51:15;11.80;99.90
48535;DHT22;34323;52.022;5.686;2023-02-11T02:53:48;11.90;99.90
48535;DHT22;34323;52.022;5.686;2023-02-11T02:59:23;12.00;99.90
48535;DHT22;34323;52.022;5.686;2023-02-11T03:04:32;11.80;99.90
48535;DHT22;34323;52.022;5.686;2023-02-11T03:07:08;11.70;99.90
48535;DHT22;34323;52.022;5.686;2023-02-11T03:09:41;11.80;99.90
48535;DHT22;34323;52.022;5.686;2023-02-11T03:12:09;11.90;99.90
48535;DHT22;34323;52.022;5.686;2023-02-11T03:14:36;12.10;99.90
48535;DHT22;34323;52.022;5.686;2023-02-11T03:17:04;12.30;99.90
48535;DHT22;34323;52.022;5.686;2023-02-11T03:19:37;12.20;99.90
48535;DHT22;34323;52.022;5.686;2023-02-11T03:22:08;12.00;99.90
48535;DHT22;34323;52.022;5.686;2023-02-11T03:24:37;11.80;99.90
48535;DHT22;34323;52.022;5.686;2023-02-11T03:27:17;11.40;99.90
48535;DHT22;34323;52.022;5.686;2023-02-11T03:29:53;11.20;99.90
48535;DHT22;34323;52.022;5.686;2023-02-11T03:32:25;11.10;99.90
48535;DHT22;34323;52.022;5.686;2023-02-11T03:34:58;11.20;99.90
48535;DHT22;34323;52.022;5.686;2023-02-11T03:40:03;11.40;99.90
48535;DHT22;34323;52.022;5.686;2023-02-11T03:42:37;11.40;99.90
48535;DHT22;34323;52.022;5.686;2023-02-11T03:45:08;11.50;99.90
48535;DHT22;34323;52.022;5.686;2023-02-11T03:47:37;11.50;99.90
48535;DHT22;34323;52.022;5.686;2023-02-11T03:50:07;11.30;99.90
48535;DHT22;34323;52.022;5.686;2023-02-11T03:52:33;11.10;99.90
48535;DHT22;34323;52.022;5.686;2023-02-11T03:55:02;11.20;99.90
48535;DHT22;34323;52.022;5.686;2023-02-11T03:57:30;11.40;99.90
48535;DHT22;34323;52.022;5.686;2023-02-11T03:59:59;11.10;99.90
48535;DHT22;34323;52.022;5.686;2023-02-11T04:02:33;11.00;99.90
48535;DHT22;34323;52.022;5.686;2023-02-11T04:05:00;11.00;99.90
48535;DHT22;34323;52.022;5.686;2023-02-11T04:07:26;11.00;99.90
48535;DHT22;34323;52.022;5.686;2023-02-11T04:09:52;11.30;99.90
48535;DHT22;34323;52.022;5.686;2023-02-11T04:12:17;11.20;99.90
48535;DHT22;34323;52.022;5.686;2023-02-11T04:14:43;11.10;99.90
48535;DHT22;34323;52.022;5.686;2023-02-11T04:17:09;11.20;99.90
48535;DHT22;34323;52.022;5.686;2023-02-11T04:19:35;11.40;99.90
48535;DHT22;34323;52.022;5.686;2023-02-11T04:22:01;11.30;99.90
48535;DHT22;34323;52.022;5.686;2023-02-11T04:24:27;11.20;99.90
48535;DHT22;34323;52.022;5.686;2023-02-11T04:26:52;11.10;99.90
48535;DHT22;34323;52.022;5.686;2023-02-11T04:29:18;11.10;99.90
48535;DHT22;34323;52.022;5.686;2023-02-11T04:31:44;11.20;99.90
48535;DHT22;34323;52.022;5.686;2023-02-11T04:34:09;11.40;99.90
48535;DHT22;34323;52.022;5.686;2023-02-11T04:36:35;11.20;99.90
48535;DHT22;34323;52.022;5.686;2023-02-11T04:39:00;11.30;99.90
48535;DHT22;34323;52.022;5.686;2023-02-11T04:41:26;11.50;99.90
48535;DHT22;34323;52.022;5.686;2023-02-11T04:43:51;11.00;99.90
48535;DHT22;34323;52.022;5.686;2023-02-11T04:46:17;11.20;99.90
48535;DHT22;34323;52.022;5.686;2023-02-11T04:48:42;11.10;99.90
48535;DHT22;34323;52.022;5.686;2023-02-11T04:51:08;11.20;99.90
48535;DHT22;34323;52.022;5.686;2023-02-11T04:53:34;11.10;99.90
48535;DHT22;34323;52.022;5.686;2023-02-11T04:55:59;11.30;99.90
48535;DHT22;34323;52.022;5.686;2023-02-11T04:58:25;11.30;99.90
48535;DHT22;34323;52.022;5.686;2023-02-11T05:00:51;11.00;99.90
48535;DHT22;34323;52.022;5.686;2023-02-11T05:03:16;10.70;99.90
48535;DHT22;34323;52.022;5.686;2023-02-11T05:05:42;10.90;99.90
48535;DHT22;34323;52.022;5.686;2023-02-11T05:08:09;11.20;99.90
48535;DHT22;34323;52.022;5.686;2023-02-11T05:10:35;11.50;99.90
48535;DHT22;34323;52.022;5.686;2023-02-11T05:13:00;11.50;99.90
48535;DHT22;34323;52.022;5.686;2023-02-11T05:15:26;11.50;99.90
48535;DHT22;34323;52.022;5.686;2023-02-11T05:17:52;11.20;99.90
48535;DHT22;34323;52.022;5.686;2023-02-11T05:20:17;11.00;99.90
48535;DHT22;34323;52.022;5.686;2023-02-11T05:22:43;11.20;99.90
48535;DHT22;34323;52.022;5.686;2023-02-11T05:25:08;11.20;99.90
48535;DHT22;34323;52.022;5.686;2023-02-11T05:27:34;11.40;99.90
48535;DHT22;34323;52.022;5.686;2023-02-11T05:30:00;11.50;99.90
48535;DHT22;34323;52.022;5.686;2023-02-11T05:32:25;11.30;99.90
48535;DHT22;34323;52.022;5.686;2023-02-11T05:34:51;10.60;99.90
48535;DHT22;34323;52.022;5.686;2023-02-11T05:37:16;10.80;99.90
48535;DHT22;34323;52.022;5.686;2023-02-11T05:39:42;11.00;99.90
48535;DHT22;34323;52.022;5.686;2023-02-11T05:42:08;11.10;99.90
48535;DHT22;34323;52.022;5.686;2023-02-11T05:44:33;11.40;99.90
48535;DHT22;34323;52.022;5.686;2023-02-11T05:46:59;11.70;99.90
48535;DHT22;34323;52.022;5.686;2023-02-11T05:49:24;11.70;99.90
48535;DHT22;34323;52.022;5.686;2023-02-11T05:51:50;11.50;99.90
48535;DHT22;34323;52.022;5.686;2023-02-11T05:54:16;11.40;99.90
48535;DHT22;34323;52.022;5.686;2023-02-11T05:56:42;10.90;99.90
48535;DHT22;34323;52.022;5.686;2023-02-11T05:59:07;10.50;99.90
48535;DHT22;34323;52.022;5.686;2023-02-11T06:01:33;10.60;99.90
48535;DHT22;34323;52.022;5.686;2023-02-11T06:03:59;10.60;99.90
48535;DHT22;34323;52.022;5.686;2023-02-11T06:06:24;10.80;99.90
48535;DHT22;34323;52.022;5.686;2023-02-11T06:08:50;11.10;99.90
48535;DHT22;34323;52.022;5.686;2023-02-11T06:11:16;10.80;99.90
48535;DHT22;34323;52.022;5.686;2023-02-11T06:13:42;10.90;99.90
48535;DHT22;34323;52.022;5.686;2023-02-11T06:16:08;11.10;99.90
48535;DHT22;34323;52.022;5.686;2023-02-11T06:18:33;11.10;99.90
48535;DHT22;34323;52.022;5.686;2023-02-11T06:20:59;11.00;99.90
48535;DHT22;34323;52.022;5.686;2023-02-11T06:23:25;11.10;99.90
48535;DHT22;34323;52.022;5.686;2023-02-11T06:25:51;11.40;99.90
48535;DHT22;34323;52.022;5.686;2023-02-11T06:28:18;11.30;99.90
48535;DHT22;34323;52.022;5.686;2023-02-11T06:30:43;11.50;99.90
48535;DHT22;34323;52.022;5.686;2023-02-11T06:33:09;11.20;99.90
48535;DHT22;34323;52.022;5.686;2023-02-11T06:35:37;10.90;99.90
48535;DHT22;34323;52.022;5.686;2023-02-11T06:38:03;11.10;99.90
48535;DHT22;34323;52.022;5.686;2023-02-11T06:40:28;11.20;99.90
48535;DHT22;34323;52.022;5.686;2023-02-11T06:42:54;11.40;99.90
48535;DHT22;34323;52.022;5.686;2023-02-11T06:45:20;11.90;99.90
48535;DHT22;34323;52.022;5.686;2023-02-11T06:47:45;12.00;99.90
48535;DHT22;34323;52.022;5.686;2023-02-11T06:50:13;12.00;99.90
48535;DHT22;34323;52.022;5.686;2023-02-11T06:52:39;12.10;99.90
48535;DHT22;34323;52.022;5.686;2023-02-11T06:55:05;12.10;99.90
48535;DHT22;34323;52.022;5.686;2023-02-11T06:57:30;12.10;99.90
48535;DHT22;34323;52.022;5.686;2023-02-11T06:59:56;12.00;99.90
48535;DHT22;34323;52.022;5.686;2023-02-11T07:02:22;12.10;99.90
48535;DHT22;34323;52.022;5.686;2023-02-11T07:04:47;12.00;99.90
48535;DHT22;34323;52.022;5.686;2023-02-11T07:07:13;12.10;99.90
48535;DHT22;34323;52.022;5.686;2023-02-11T07:09:39;12.20;99.90
48535;DHT22;34323;52.022;5.686;2023-02-11T07:12:04;12.10;99.90
48535;DHT22;34323;52.022;5.686;2023-02-11T07:14:30;11.80;99.90
48535;DHT22;34323;52.022;5.686;2023-02-11T07:16:56;11.80;99.90
48535;DHT22;34323;52.022;5.686;2023-02-11T07:19:22;12.00;99.90
48535;DHT22;34323;52.022;5.686;2023-02-11T07:21:47;11.90;99.90
48535;DHT22;34323;52.022;5.686;2023-02-11T07:24:13;11.90;99.90
48535;DHT22;34323;52.022;5.686;2023-02-11T07:26:39;12.00;99.90
48535;DHT22;34323;52.022;5.686;2023-02-11T07:29:05;11.70;99.90
48535;DHT22;34323;52.022;5.686;2023-02-11T07:31:31;11.50;99.90
48535;DHT22;34323;52.022;5.686;2023-02-11T07:33:58;11.80;99.90
48535;DHT22;34323;52.022;5.686;2023-02-11T07:36:25;11.80;99.90
48535;DHT22;34323;52.022;5.686;2023-02-11T07:38:51;12.00;99.90
48535;DHT22;34323;52.022;5.686;2023-02-11T07:41:19;11.70;99.90
48535;DHT22;34323;52.022;5.686;2023-02-11T07:43:45;11.50;99.90
48535;DHT22;34323;52.022;5.686;2023-02-11T07:46:20;11.60;99.90
48535;DHT22;34323;52.022;5.686;2023-02-11T07:48:46;11.60;99.90
48535;DHT22;34323;52.022;5.686;2023-02-11T07:51:23;11.70;99.90
48535;DHT22;34323;52.022;5.686;2023-02-11T07:53:50;11.90;99.90
48535;DHT22;34323;52.022;5.686;2023-02-11T07:56:17;12.00;99.90
48535;DHT22;34323;52.022;5.686;2023-02-11T07:58:44;11.80;99.90
48535;DHT22;34323;52.022;5.686;2023-02-11T08:01:12;11.60;99.90
48535;DHT22;34323;52.022;5.686;2023-02-11T08:03:38;11.50;99.90
48535;DHT22;34323;52.022;5.686;2023-02-11T08:06:15;11.40;99.90
48535;DHT22;34323;52.022;5.686;2023-02-11T08:08:42;11.70;99.90
48535;DHT22;34323;52.022;5.686;2023-02-11T08:11:11;11.70;99.90
48535;DHT22;34323;52.022;5.686;2023-02-11T08:13:37;11.90;99.90
48535;DHT22;34323;52.022;5.686;2023-02-11T08:16:03;12.10;99.90
48535;DHT22;34323;52.022;5.686;2023-02-11T08:18:30;12.00;99.90
48535;DHT22;34323;52.022;5.686;2023-02-11T08:20:56;11.90;99.90
48535;DHT22;34323;52.022;5.686;2023-02-11T08:23:21;11.60;99.90
48535;DHT22;34323;52.022;5.686;2023-02-11T08:25:47;11.80;99.90
48535;DHT22;34323;52.022;5.686;2023-02-11T08:28:12;11.70;99.90
48535;DHT22;34323;52.022;5.686;2023-02-11T08:30:38;11.10;99.90
48535;DHT22;34323;52.022;5.686;2023-02-11T08:33:04;11.30;99.90
48535;DHT22;34323;52.022;5.686;2023-02-11T08:35:29;11.70;99.90
48535;DHT22;34323;52.022;5.686;2023-02-11T08:37:55;12.20;99.90
48535;DHT22;34323;52.022;5.686;2023-02-11T08:40:20;12.10;99.90
48535;DHT22;34323;52.022;5.686;2023-02-11T08:42:46;11.80;99.90
48535;DHT22;34323;52.022;5.686;2023-02-11T08:45:12;11.70;99.90
48535;DHT22;34323;52.022;5.686;2023-02-11T08:47:38;11.90;99.90
48535;DHT22;34323;52.022;5.686;2023-02-11T08:50:04;12.10;99.90
48535;DHT22;34323;52.022;5.686;2023-02-11T08:52:30;11.90;99.90
48535;DHT22;34323;52.022;5.686;2023-02-11T08:54:56;11.80;99.90
48535;DHT22;34323;52.022;5.686;2023-02-11T08:57:21;11.90;99.90
48535;DHT22;34323;52.022;5.686;2023-02-11T08:59:47;12.10;99.90
48535;DHT22;34323;52.022;5.686;2023-02-11T09:02:13;12.40;99.90
48535;DHT22;34323;52.022;5.686;2023-02-11T09:04:39;12.40;99.90
48535;DHT22;34323;52.022;5.686;2023-02-11T09:07:05;12.40;99.90
48535;DHT22;34323;52.022;5.686;2023-02-11T09:09:30;12.30;99.90
48535;DHT22;34323;52.022;5.686;2023-02-11T09:11:56;12.30;99.90
48535;DHT22;34323;52.022;5.686;2023-02-11T09:14:23;12.10;99.90
48535;DHT22;34323;52.022;5.686;2023-02-11T09:16:49;12.00;99.90
48535;DHT22;34323;52.022;5.686;2023-02-11T09:19:16;12.30;99.90
48535;DHT22;34323;52.022;5.686;2023-02-11T09:21:42;12.70;99.90
48535;DHT22;34323;52.022;5.686;2023-02-11T09:24:08;12.70;99.90
48535;DHT22;34323;52.022;5.686;2023-02-11T09:26:35;12.70;99.90
48535;DHT22;34323;52.022;5.686;2023-02-11T09:29:03;12.60;99.90
48535;DHT22;34323;52.022;5.686;2023-02-11T09:31:30;12.60;99.90
48535;DHT22;34323;52.022;5.686;2023-02-11T09:33:59;13.00;99.90
48535;DHT22;34323;52.022;5.686;2023-02-11T09:36:28;12.70;99.90
48535;DHT22;34323;52.022;5.686;2023-02-11T09:38:54;12.60;99.90
48535;DHT22;34323;52.022;5.686;2023-02-11T09:44:06;12.80;99.90
48535;DHT22;34323;52.022;5.686;2023-02-11T09:46:37;12.70;99.90
48535;DHT22;34323;52.022;5.686;2023-02-11T09:49:04;12.80;99.90
48535;DHT22;34323;52.022;5.686;2023-02-11T09:51:45;12.90;99.90
48535;DHT22;34323;52.022;5.686;2023-02-11T09:54:26;13.10;99.90
48535;DHT22;34323;52.022;5.686;2023-02-11T09:56:52;12.80;99.90
48535;DHT22;34323;52.022;5.686;2023-02-11T09:59:18;12.70;99.90
48535;DHT22;34323;52.022;5.686;2023-02-11T10:02:03;12.80;99.90
48535;DHT22;34323;52.022;5.686;2023-02-11T10:07:27;12.60;99.90
48535;DHT22;34323;52.022;5.686;2023-02-11T10:13:05;12.50;99.90
48535;DHT22;34323;52.022;5.686;2023-02-11T10:15:41;12.90;99.90
48535;DHT22;34323;52.022;5.686;2023-02-11T10:23:24;13.40;99.90
48535;DHT22;34323;52.022;5.686;2023-02-11T10:25:54;13.90;99.90
48535;DHT22;34323;52.022;5.686;2023-02-11T10:28:29;14.10;99.90
48535;DHT22;34323;52.022;5.686;2023-02-11T10:31:06;14.20;99.90
48535;DHT22;34323;52.022;5.686;2023-02-11T10:36:21;14.30;99.90
48535;DHT22;34323;52.022;5.686;2023-02-11T10:38:48;14.40;99.90
48535;DHT22;34323;52.022;5.686;2023-02-11T10:41:22;14.40;99.90
48535;DHT22;34323;52.022;5.686;2023-02-11T10:43:50;14.50;99.90
48535;DHT22;34323;52.022;5.686;2023-02-11T10:46:20;14.50;99.90
48535;DHT22;34323;52.022;5.686;2023-02-11T10:48:49;14.70;99.90
48535;DHT22;34323;52.022;5.686;2023-02-11T10:51:28;14.90;99.90
48535;DHT22;34323;52.022;5.686;2023-02-11T10:56:31;15.50;99.90
48535;DHT22;34323;52.022;5.686;2023-02-11T10:59:21;15.60;99.90
48535;DHT22;34323;52.022;5.686;2023-02-11T11:01:51;15.90;99.90
48535;DHT22;34323;52.022;5.686;2023-02-11T11:07:09;16.30;99.90
48535;DHT22;34323;52.022;5.686;2023-02-11T11:09:57;15.70;99.90
48535;DHT22;34323;52.022;5.686;2023-02-11T11:12:46;15.70;99.90
48535;DHT22;34323;52.022;5.686;2023-02-11T11:15:21;15.60;99.90
48535;DHT22;34323;52.022;5.686;2023-02-11T11:18:14;15.70;99.90
48535;DHT22;34323;52.022;5.686;2023-02-11T11:20:57;15.60;99.90
48535;DHT22;34323;52.022;5.686;2023-02-11T11:23:24;15.50;99.90
48535;DHT22;34323;52.022;5.686;2023-02-11T11:26:10;15.40;99.90
48535;DHT22;34323;52.022;5.686;2023-02-11T11:31:14;15.20;99.90
48535;DHT22;34323;52.022;5.686;2023-02-11T11:33:42;15.30;99.90
48535;DHT22;34323;52.022;5.686;2023-02-11T11:36:11;15.30;99.90
48535;DHT22;34323;52.022;5.686;2023-02-11T11:38:44;15.50;99.90
48535;DHT22;34323;52.022;5.686;2023-02-11T11:41:29;15.70;99.90
48535;DHT22;34323;52.022;5.686;2023-02-11T11:44:31;15.80;99.90
48535;DHT22;34323;52.022;5.686;2023-02-11T11:46:52;15.80;99.90
48535;DHT22;34323;52.022;5.686;2023-02-11T11:49:34;15.90;99.90
48535;DHT22;34323;52.022;5.686;2023-02-11T11:54:37;15.70;99.90
48535;DHT22;34323;52.022;5.686;2023-02-11T11:57:17;15.50;99.90
48535;DHT22;34323;52.022;5.686;2023-02-11T11:59:43;15.50;99.90
48535;DHT22;34323;52.022;5.686;2023-02-11T12:04:52;15.80;99.90
48535;DHT22;34323;52.022;5.686;2023-02-11T12:18:33;15.40;99.90
48535;DHT22;34323;52.022;5.686;2023-02-11T12:29:45;16.20;99.90
48535;DHT22;34323;52.022;5.686;2023-02-11T12:32:39;16.50;99.90
48535;DHT22;34323;52.022;5.686;2023-02-11T12:40:43;17.10;99.90
48535;DHT22;34323;52.022;5.686;2023-02-11T12:46:01;17.00;99.90
48535;DHT22;34323;52.022;5.686;2023-02-11T12:49:26;16.80;99.90
48535;DHT22;34323;52.022;5.686;2023-02-11T12:51:39;16.90;99.90
48535;DHT22;34323;52.022;5.686;2023-02-11T12:54:29;16.80;99.90
48535;DHT22;34323;52.022;5.686;2023-02-11T12:57:00;16.70;99.90
48535;DHT22;34323;52.022;5.686;2023-02-11T12:59:44;16.20;99.90
48535;DHT22;34323;52.022;5.686;2023-02-11T13:02:41;15.90;99.90
48535;DHT22;34323;52.022;5.686;2023-02-11T13:05:21;16.30;99.90
48535;DHT22;34323;52.022;5.686;2023-02-11T13:07:50;16.20;99.90
48535;DHT22;34323;52.022;5.686;2023-02-11T13:12:54;16.60;99.90
48535;DHT22;34323;52.022;5.686;2023-02-11T13:15:41;16.30;99.90
48535;DHT22;34323;52.022;5.686;2023-02-11T13:21:15;15.80;99.90
48535;DHT22;34323;52.022;5.686;2023-02-11T13:26:26;16.10;99.90
48535;DHT22;34323;52.022;5.686;2023-02-11T13:29:17;16.20;99.90
48535;DHT22;34323;52.022;5.686;2023-02-11T13:31:55;16.50;99.90
48535;DHT22;34323;52.022;5.686;2023-02-11T13:37:21;16.70;99.90
48535;DHT22;34323;52.022;5.686;2023-02-11T13:40:03;16.50;99.90
48535;DHT22;34323;52.022;5.686;2023-02-11T13:42:30;16.40;99.90
48535;DHT22;34323;52.022;5.686;2023-02-11T13:44:57;16.30;99.90
48535;DHT22;34323;52.022;5.686;2023-02-11T13:47:29;16.40;99.90
48535;DHT22;34323;52.022;5.686;2023-02-11T13:49:56;16.30;99.90
48535;DHT22;34323;52.022;5.686;2023-02-11T13:52:28;16.10;99.90
48535;DHT22;34323;52.022;5.686;2023-02-11T13:54:56;16.20;99.90
48535;DHT22;34323;52.022;5.686;2023-02-11T13:57:32;16.20;99.90
48535;DHT22;34323;52.022;5.686;2023-02-11T14:09:33;16.40;99.90
48535;DHT22;34323;52.022;5.686;2023-02-11T14:12:22;16.60;99.90
48535;DHT22;34323;52.022;5.686;2023-02-11T14:17:33;16.60;99.90
48535;DHT22;34323;52.022;5.686;2023-02-11T14:20:06;16.70;99.90
48535;DHT22;34323;52.022;5.686;2023-02-11T14:22:48;16.80;99.90
48535;DHT22;34323;52.022;5.686;2023-02-11T14:25:21;16.80;99.90
48535;DHT22;34323;52.022;5.686;2023-02-11T14:27:50;17.00;99.90
48535;DHT22;34323;52.022;5.686;2023-02-11T14:30:29;16.90;99.90
48535;DHT22;34323;52.022;5.686;2023-02-11T14:41:09;16.20;99.90
48535;DHT22;34323;52.022;5.686;2023-02-11T14:43:44;16.50;99.90
48535;DHT22;34323;52.022;5.686;2023-02-11T14:46:14;16.80;99.90
48535;DHT22;34323;52.022;5.686;2023-02-11T14:48:44;16.70;99.90
48535;DHT22;34323;52.022;5.686;2023-02-11T14:51:26;16.50;99.90
48535;DHT22;34323;52.022;5.686;2023-02-11T14:54:00;16.40;99.90
48535;DHT22;34323;52.022;5.686;2023-02-11T14:56:30;16.30;99.90
48535;DHT22;34323;52.022;5.686;2023-02-11T14:58:56;16.30;99.90
48535;DHT22;34323;52.022;5.686;2023-02-11T15:01:33;16.40;99.90
48535;DHT22;34323;52.022;5.686;2023-02-11T15:04:02;16.50;99.90
48535;DHT22;34323;52.022;5.686;2023-02-11T15:06:35;16.50;99.90
48535;DHT22;34323;52.022;5.686;2023-02-11T15:09:12;16.60;99.90
48535;DHT22;34323;52.022;5.686;2023-02-11T15:11:40;16.50;99.90
48535;DHT22;34323;52.022;5.686;2023-02-11T15:16:53;16.80;99.90
48535;DHT22;34323;52.022;5.686;2023-02-11T15:19:38;17.00;99.90
48535;DHT22;34323;52.022;5.686;2023-02-11T15:22:06;17.10;99.90
48535;DHT22;34323;52.022;5.686;2023-02-11T15:24:34;17.20;99.90
48535;DHT22;34323;52.022;5.686;2023-02-11T15:27:11;17.10;99.90
48535;DHT22;34323;52.022;5.686;2023-02-11T15:29:49;17.20;99.90
48535;DHT22;34323;52.022;5.686;2023-02-11T15:32:18;17.10;99.90
48535;DHT22;34323;52.022;5.686;2023-02-11T15:34:44;17.30;99.90
48535;DHT22;34323;52.022;5.686;2023-02-11T15:37:16;17.50;99.90
48535;DHT22;34323;52.022;5.686;2023-02-11T15:39:43;17.20;99.90
48535;DHT22;34323;52.022;5.686;2023-02-11T15:44:41;17.30;99.90
48535;DHT22;34323;52.022;5.686;2023-02-11T15:47:14;17.20;99.90
48535;DHT22;34323;52.022;5.686;2023-02-11T15:49:44;17.20;99.90
48535;DHT22;34323;52.022;5.686;2023-02-11T15:52:11;16.80;99.90
48535;DHT22;34323;52.022;5.686;2023-02-11T15:54:37;16.40;99.90
48535;DHT22;34323;52.022;5.686;2023-02-11T15:57:07;16.60;99.90
48535;DHT22;34323;52.022;5.686;2023-02-11T15:59:37;16.50;99.90
48535;DHT22;34323;52.022;5.686;2023-02-11T16:02:16;16.60;99.90
48535;DHT22;34323;52.022;5.686;2023-02-11T16:05:23;16.80;99.90
48535;DHT22;34323;52.022;5.686;2023-02-11T16:07:49;16.90;99.90
48535;DHT22;34323;52.022;5.686;2023-02-11T16:13:18;16.60;99.90
48535;DHT22;34323;52.022;5.686;2023-02-11T16:15:53;16.90;99.90
48535;DHT22;34323;52.022;5.686;2023-02-11T16:18:36;16.20;99.90
48535;DHT22;34323;52.022;5.686;2023-02-11T16:21:03;16.60;99.90
48535;DHT22;34323;52.022;5.686;2023-02-11T16:23:33;16.80;99.90
48535;DHT22;34323;52.022;5.686;2023-02-11T16:26:11;16.70;99.90
48535;DHT22;34323;52.022;5.686;2023-02-11T16:28:44;16.60;99.90
48535;DHT22;34323;52.022;5.686;2023-02-11T16:31:09;16.60;99.90
48535;DHT22;34323;52.022;5.686;2023-02-11T16:33:35;16.80;99.90
48535;DHT22;34323;52.022;5.686;2023-02-11T16:36:05;16.80;99.90
48535;DHT22;34323;52.022;5.686;2023-02-11T16:38:34;16.90;99.90
48535;DHT22;34323;52.022;5.686;2023-02-11T16:41:00;16.80;99.90
48535;DHT22;34323;52.022;5.686;2023-02-11T16:43:25;16.80;99.90
48535;DHT22;34323;52.022;5.686;2023-02-11T16:45:51;16.70;99.90
48535;DHT22;34323;52.022;5.686;2023-02-11T16:48:17;16.80;99.90
48535;DHT22;34323;52.022;5.686;2023-02-11T16:50:46;16.50;99.90
48535;DHT22;34323;52.022;5.686;2023-02-11T16:53:16;16.40;99.90
48535;DHT22;34323;52.022;5.686;2023-02-11T16:55:42;16.40;99.90
48535;DHT22;34323;52.022;5.686;2023-02-11T16:58:08;16.40;99.90
48535;DHT22;34323;52.022;5.686;2023-02-11T17:00:34;16.40;99.90
48535;DHT22;34323;52.022;5.686;2023-02-11T17:03:02;16.60;99.90
48535;DHT22;34323;52.022;5.686;2023-02-11T17:05:29;16.60;99.90
48535;DHT22;34323;52.022;5.686;2023-02-11T17:07:55;16.50;99.90
48535;DHT22;34323;52.022;5.686;2023-02-11T17:10:22;16.10;99.90
48535;DHT22;34323;52.022;5.686;2023-02-11T17:12:48;15.90;99.90
48535;DHT22;34323;52.022;5.686;2023-02-11T17:15:15;15.70;99.90
48535;DHT22;34323;52.022;5.686;2023-02-11T17:17:41;15.50;99.90
48535;DHT22;34323;52.022;5.686;2023-02-11T17:20:07;15.30;99.90
48535;DHT22;34323;52.022;5.686;2023-02-11T17:22:33;15.50;99.90
48535;DHT22;34323;52.022;5.686;2023-02-11T17:24:59;15.70;99.90
48535;DHT22;34323;52.022;5.686;2023-02-11T17:27:24;15.70;99.90
48535;DHT22;34323;52.022;5.686;2023-02-11T17:29:50;15.70;99.90
48535;DHT22;34323;52.022;5.686;2023-02-11T17:32:15;15.80;99.90
48535;DHT22;34323;52.022;5.686;2023-02-11T17:34:41;15.70;99.90
48535;DHT22;34323;52.022;5.686;2023-02-11T17:37:06;15.60;99.90
48535;DHT22;34323;52.022;5.686;2023-02-11T17:39:38;15.70;99.90
48535;DHT22;34323;52.022;5.686;2023-02-11T17:42:04;15.70;99.90
48535;DHT22;34323;52.022;5.686;2023-02-11T17:44:31;15.50;99.90
48535;DHT22;34323;52.022;5.686;2023-02-11T17:46:57;15.40;99.90
48535;DHT22;34323;52.022;5.686;2023-02-11T17:49:22;15.50;99.90
48535;DHT22;34323;52.022;5.686;2023-02-11T17:51:48;15.30;99.90